Bam Airport

Airport
ICAO code: 
OIKM
IATA Code: 
BXR
Summary
ICAO Region: 
MID
Territory: 
Location: 
Baravat, Kerman
Serving: 
Bam
Elevation: 
3231 ft
Coordinates: 
Aerial View: 
29° 4' 49.932" N, 58° 26' 58.027" E
Metar
Observation
OIKM 021600Z 09006KT 7000 NSC 41/M02 Q0998
Station
Bam
Date/Time
2022-07-02 16:00:00
Wind direction
90°
Wind speed
06 kts
Lowest cloud amount
nil significant cloud
Temperature
41°C
Dew point
-2°C
Humidity
6%
QNH
998 hPa
Weather condition
n/a

Airport east of Bam, Iran.

Climatology

Warm desert climate (Köppen climate classification BWh).

Runways

Designator Length Width Surface Rops
12/30 3385 45 ASP No/No
Airport map: 
Aerial View: 

SKYbrary Partners:

Safety knowledge contributed by: